sensor_id;sensor_type;location;lat;lon;timestamp;temperature;humidity
39493;DHT22;25176;51.060;3.720;2023-01-01T00:01:21;14.70;99.00
39493;DHT22;25176;51.060;3.720;2023-01-01T00:03:49;14.60;99.10
39493;DHT22;25176;51.060;3.720;2023-01-01T00:06:15;14.70;99.20
39493;DHT22;25176;51.060;3.720;2023-01-01T00:08:40;14.70;98.90
39493;DHT22;25176;51.060;3.720;2023-01-01T00:11:07;14.70;98.90
39493;DHT22;25176;51.060;3.720;2023-01-01T00:13:33;14.60;99.00
39493;DHT22;25176;51.060;3.720;2023-01-01T00:16:05;14.70;98.90
39493;DHT22;25176;51.060;3.720;2023-01-01T00:18:31;14.70;98.90
39493;DHT22;25176;51.060;3.720;2023-01-01T00:21:03;14.70;99.00
39493;DHT22;25176;51.060;3.720;2023-01-01T00:23:29;14.70;98.90
39493;DHT22;25176;51.060;3.720;2023-01-01T00:25:54;14.70;99.00
39493;DHT22;25176;51.060;3.720;2023-01-01T00:28:20;14.70;98.90
39493;DHT22;25176;51.060;3.720;2023-01-01T00:30:45;14.70;98.80
39493;DHT22;25176;51.060;3.720;2023-01-01T00:33:11;14.70;98.90
39493;DHT22;25176;51.060;3.720;2023-01-01T00:35:36;14.60;99.00
39493;DHT22;25176;51.060;3.720;2023-01-01T00:38:01;14.60;99.00
39493;DHT22;25176;51.060;3.720;2023-01-01T00:40:27;14.60;99.10
39493;DHT22;25176;51.060;3.720;2023-01-01T00:42:52;14.60;99.10
39493;DHT22;25176;51.060;3.720;2023-01-01T00:45:18;14.60;99.10
39493;DHT22;25176;51.060;3.720;2023-01-01T00:47:43;14.60;99.10
39493;DHT22;25176;51.060;3.720;2023-01-01T00:50:09;14.60;99.20
39493;DHT22;25176;51.060;3.720;2023-01-01T00:52:34;14.60;99.30
39493;DHT22;25176;51.060;3.720;2023-01-01T00:55:00;14.60;99.10
39493;DHT22;25176;51.060;3.720;2023-01-01T00:57:25;14.60;99.20
39493;DHT22;25176;51.060;3.720;2023-01-01T00:59:51;14.60;99.20
39493;DHT22;25176;51.060;3.720;2023-01-01T01:02:16;14.60;99.00
39493;DHT22;25176;51.060;3.720;2023-01-01T01:04:42;14.70;99.10
39493;DHT22;25176;51.060;3.720;2023-01-01T01:07:07;14.60;99.00
39493;DHT22;25176;51.060;3.720;2023-01-01T01:09:33;14.50;98.90
39493;DHT22;25176;51.060;3.720;2023-01-01T01:11:58;14.50;98.90
39493;DHT22;25176;51.060;3.720;2023-01-01T01:14:24;14.50;99.20
39493;DHT22;25176;51.060;3.720;2023-01-01T01:16:49;14.50;98.80
39493;DHT22;25176;51.060;3.720;2023-01-01T01:19:15;14.40;98.70
39493;DHT22;25176;51.060;3.720;2023-01-01T01:21:43;14.40;98.90
39493;DHT22;25176;51.060;3.720;2023-01-01T01:24:09;14.40;98.80
39493;DHT22;25176;51.060;3.720;2023-01-01T01:26:35;14.40;98.80
39493;DHT22;25176;51.060;3.720;2023-01-01T01:29:01;14.50;98.80
39493;DHT22;25176;51.060;3.720;2023-01-01T01:31:27;14.50;98.80
39493;DHT22;25176;51.060;3.720;2023-01-01T01:33:53;14.50;98.90
39493;DHT22;25176;51.060;3.720;2023-01-01T01:36:19;14.50;98.90
39493;DHT22;25176;51.060;3.720;2023-01-01T01:38:45;14.50;99.00
39493;DHT22;25176;51.060;3.720;2023-01-01T01:41:11;14.40;99.00
39493;DHT22;25176;51.060;3.720;2023-01-01T01:46:08;14.40;98.90
39493;DHT22;25176;51.060;3.720;2023-01-01T01:48:36;14.40;98.90
39493;DHT22;25176;51.060;3.720;2023-01-01T01:51:03;14.50;98.90
39493;DHT22;25176;51.060;3.720;2023-01-01T01:53:29;14.50;99.00
39493;DHT22;25176;51.060;3.720;2023-01-01T01:56:01;14.50;99.10
39493;DHT22;25176;51.060;3.720;2023-01-01T01:58:28;14.40;99.30
39493;DHT22;25176;51.060;3.720;2023-01-01T02:00:54;14.40;99.30
39493;DHT22;25176;51.060;3.720;2023-01-01T02:03:42;14.50;99.50
39493;DHT22;25176;51.060;3.720;2023-01-01T02:06:06;14.40;99.50
39493;DHT22;25176;51.060;3.720;2023-01-01T02:08:32;14.40;99.60
39493;DHT22;25176;51.060;3.720;2023-01-01T02:10:58;14.40;99.80
39493;DHT22;25176;51.060;3.720;2023-01-01T02:13:23;14.30;99.90
39493;DHT22;25176;51.060;3.720;2023-01-01T02:15:51;14.30;99.90
39493;DHT22;25176;51.060;3.720;2023-01-01T02:18:20;14.30;99.90
39493;DHT22;25176;51.060;3.720;2023-01-01T02:20:51;14.40;99.90
39493;DHT22;25176;51.060;3.720;2023-01-01T02:23:36;14.40;99.90
39493;DHT22;25176;51.060;3.720;2023-01-01T02:31:21;14.30;99.90
39493;DHT22;25176;51.060;3.720;2023-01-01T02:33:48;14.40;99.80
39493;DHT22;25176;51.060;3.720;2023-01-01T02:36:15;14.40;99.70
39493;DHT22;25176;51.060;3.720;2023-01-01T02:38:45;14.30;99.90
39493;DHT22;25176;51.060;3.720;2023-01-01T02:41:13;14.30;99.90
39493;DHT22;25176;51.060;3.720;2023-01-01T02:43:40;14.30;99.90
39493;DHT22;25176;51.060;3.720;2023-01-01T02:46:09;14.30;99.90
39493;DHT22;25176;51.060;3.720;2023-01-01T02:54:29;14.30;99.90
39493;DHT22;25176;51.060;3.720;2023-01-01T03:04:33;14.30;99.90
39493;DHT22;25176;51.060;3.720;2023-01-01T03:07:03;14.40;99.90
39493;DHT22;25176;51.060;3.720;2023-01-01T03:09:36;14.30;99.90
39493;DHT22;25176;51.060;3.720;2023-01-01T03:17:31;14.40;99.90
39493;DHT22;25176;51.060;3.720;2023-01-01T03:19:58;14.30;99.90
39493;DHT22;25176;51.060;3.720;2023-01-01T03:22:29;14.30;99.90
39493;DHT22;25176;51.060;3.720;2023-01-01T03:25:08;14.30;99.90
39493;DHT22;25176;51.060;3.720;2023-01-01T03:30:07;14.30;99.90
39493;DHT22;25176;51.060;3.720;2023-01-01T03:32:34;14.30;99.90
39493;DHT22;25176;51.060;3.720;2023-01-01T03:35:20;14.30;99.90
39493;DHT22;25176;51.060;3.720;2023-01-01T03:37:47;14.30;99.90
39493;DHT22;25176;51.060;3.720;2023-01-01T03:40:13;14.20;99.90
39493;DHT22;25176;51.060;3.720;2023-01-01T03:42:40;14.30;99.90
39493;DHT22;25176;51.060;3.720;2023-01-01T03:45:10;14.20;99.90
39493;DHT22;25176;51.060;3.720;2023-01-01T03:47:38;14.20;99.90
39493;DHT22;25176;51.060;3.720;2023-01-01T03:50:03;14.20;99.90
39493;DHT22;25176;51.060;3.720;2023-01-01T03:55:18;14.40;99.90
39493;DHT22;25176;51.060;3.720;2023-01-01T04:00:15;14.30;99.90
39493;DHT22;25176;51.060;3.720;2023-01-01T04:05:25;14.30;99.90
39493;DHT22;25176;51.060;3.720;2023-01-01T04:07:51;14.30;99.90
39493;DHT22;25176;51.060;3.720;2023-01-01T04:10:18;14.20;99.90
39493;DHT22;25176;51.060;3.720;2023-01-01T04:12:47;14.30;99.90
39493;DHT22;25176;51.060;3.720;2023-01-01T04:15:14;14.30;99.90
39493;DHT22;25176;51.060;3.720;2023-01-01T04:17:40;14.30;99.90
39493;DHT22;25176;51.060;3.720;2023-01-01T04:20:05;14.30;99.90
39493;DHT22;25176;51.060;3.720;2023-01-01T04:22:32;14.30;99.90
39493;DHT22;25176;51.060;3.720;2023-01-01T04:24:57;14.30;99.90
39493;DHT22;25176;51.060;3.720;2023-01-01T04:27:23;14.30;99.90
39493;DHT22;25176;51.060;3.720;2023-01-01T04:29:48;14.30;99.90
39493;DHT22;25176;51.060;3.720;2023-01-01T04:32:14;14.30;99.90
39493;DHT22;25176;51.060;3.720;2023-01-01T04:34:39;14.20;99.90
39493;DHT22;25176;51.060;3.720;2023-01-01T04:37:05;14.00;99.90
39493;DHT22;25176;51.060;3.720;2023-01-01T04:39:30;14.00;99.90
39493;DHT22;25176;51.060;3.720;2023-01-01T04:41:56;13.90;99.90
39493;DHT22;25176;51.060;3.720;2023-01-01T04:44:21;13.70;99.90
39493;DHT22;25176;51.060;3.720;2023-01-01T04:46:47;13.60;99.90
39493;DHT22;25176;51.060;3.720;2023-01-01T04:49:12;13.40;99.90
39493;DHT22;25176;51.060;3.720;2023-01-01T04:51:38;13.20;99.90
39493;DHT22;25176;51.060;3.720;2023-01-01T04:54:03;13.10;99.90
39493;DHT22;25176;51.060;3.720;2023-01-01T04:56:28;13.10;99.90
39493;DHT22;25176;51.060;3.720;2023-01-01T04:58:54;13.10;99.90
39493;DHT22;25176;51.060;3.720;2023-01-01T05:01:22;13.20;99.90
39493;DHT22;25176;51.060;3.720;2023-01-01T05:03:48;13.20;99.90
39493;DHT22;25176;51.060;3.720;2023-01-01T05:06:14;13.20;99.90
39493;DHT22;25176;51.060;3.720;2023-01-01T05:08:41;13.10;99.90
39493;DHT22;25176;51.060;3.720;2023-01-01T05:11:08;13.20;99.90
39493;DHT22;25176;51.060;3.720;2023-01-01T05:13:34;13.10;99.90
39493;DHT22;25176;51.060;3.720;2023-01-01T05:16:07;13.20;99.90
39493;DHT22;25176;51.060;3.720;2023-01-01T05:18:33;13.10;99.90
39493;DHT22;25176;51.060;3.720;2023-01-01T05:21:03;13.10;99.90
39493;DHT22;25176;51.060;3.720;2023-01-01T05:23:29;13.20;99.90
39493;DHT22;25176;51.060;3.720;2023-01-01T05:25:54;13.10;99.90
39493;DHT22;25176;51.060;3.720;2023-01-01T05:28:20;13.10;99.90
39493;DHT22;25176;51.060;3.720;2023-01-01T05:30:45;13.10;99.90
39493;DHT22;25176;51.060;3.720;2023-01-01T05:33:11;13.10;99.90
39493;DHT22;25176;51.060;3.720;2023-01-01T05:35:37;13.10;99.90
39493;DHT22;25176;51.060;3.720;2023-01-01T05:38:03;13.10;99.90
39493;DHT22;25176;51.060;3.720;2023-01-01T05:40:29;13.10;99.90
39493;DHT22;25176;51.060;3.720;2023-01-01T05:42:54;13.20;99.90
39493;DHT22;25176;51.060;3.720;2023-01-01T05:45:20;13.20;99.90
39493;DHT22;25176;51.060;3.720;2023-01-01T05:47:45;13.20;99.90
39493;DHT22;25176;51.060;3.720;2023-01-01T05:50:11;13.20;99.90
39493;DHT22;25176;51.060;3.720;2023-01-01T05:52:36;13.20;99.90
39493;DHT22;25176;51.060;3.720;2023-01-01T05:55:02;13.20;99.90
39493;DHT22;25176;51.060;3.720;2023-01-01T05:57:28;13.20;99.90
39493;DHT22;25176;51.060;3.720;2023-01-01T05:59:53;13.20;99.90
39493;DHT22;25176;51.060;3.720;2023-01-01T06:02:19;13.20;99.90
39493;DHT22;25176;51.060;3.720;2023-01-01T06:04:44;13.20;99.90
39493;DHT22;25176;51.060;3.720;2023-01-01T06:07:10;13.20;99.90
39493;DHT22;25176;51.060;3.720;2023-01-01T06:09:35;13.20;99.90
39493;DHT22;25176;51.060;3.720;2023-01-01T06:12:01;13.10;99.90
39493;DHT22;25176;51.060;3.720;2023-01-01T06:14:26;13.20;99.90
39493;DHT22;25176;51.060;3.720;2023-01-01T06:16:52;13.10;99.90
39493;DHT22;25176;51.060;3.720;2023-01-01T06:19:17;13.10;99.90
39493;DHT22;25176;51.060;3.720;2023-01-01T06:21:43;13.20;99.90
39493;DHT22;25176;51.060;3.720;2023-01-01T06:24:08;13.20;99.90
39493;DHT22;25176;51.060;3.720;2023-01-01T06:26:34;13.20;99.90
39493;DHT22;25176;51.060;3.720;2023-01-01T06:28:59;13.10;99.90
39493;DHT22;25176;51.060;3.720;2023-01-01T06:31:25;13.10;99.90
39493;DHT22;25176;51.060;3.720;2023-01-01T06:33:51;13.00;99.90
39493;DHT22;25176;51.060;3.720;2023-01-01T06:36:18;13.00;99.90
39493;DHT22;25176;51.060;3.720;2023-01-01T06:38:45;12.90;99.90
39493;DHT22;25176;51.060;3.720;2023-01-01T06:41:13;12.90;99.90
39493;DHT22;25176;51.060;3.720;2023-01-01T06:43:39;12.90;99.90
39493;DHT22;25176;51.060;3.720;2023-01-01T06:46:18;12.90;99.90
39493;DHT22;25176;51.060;3.720;2023-01-01T06:48:44;12.90;99.90
39493;DHT22;25176;51.060;3.720;2023-01-01T06:51:10;12.90;99.90
39493;DHT22;25176;51.060;3.720;2023-01-01T06:53:36;12.90;99.90
39493;DHT22;25176;51.060;3.720;2023-01-01T06:56:02;12.90;99.90
39493;DHT22;25176;51.060;3.720;2023-01-01T06:58:27;12.80;99.90
39493;DHT22;25176;51.060;3.720;2023-01-01T07:00:53;12.70;99.90
39493;DHT22;25176;51.060;3.720;2023-01-01T07:03:18;12.70;99.90
39493;DHT22;25176;51.060;3.720;2023-01-01T07:05:44;12.70;99.90
39493;DHT22;25176;51.060;3.720;2023-01-01T07:08:09;12.70;99.90
39493;DHT22;25176;51.060;3.720;2023-01-01T07:10:35;12.80;99.90
39493;DHT22;25176;51.060;3.720;2023-01-01T07:13:00;12.90;99.90
39493;DHT22;25176;51.060;3.720;2023-01-01T07:15:26;12.90;99.90
39493;DHT22;25176;51.060;3.720;2023-01-01T07:17:51;12.90;99.90
39493;DHT22;25176;51.060;3.720;2023-01-01T07:20:17;12.90;99.90
39493;DHT22;25176;51.060;3.720;2023-01-01T07:22:42;13.00;99.90
39493;DHT22;25176;51.060;3.720;2023-01-01T07:25:08;12.90;99.90
39493;DHT22;25176;51.060;3.720;2023-01-01T07:27:35;12.80;99.90
39493;DHT22;25176;51.060;3.720;2023-01-01T07:30:00;12.70;99.90
39493;DHT22;25176;51.060;3.720;2023-01-01T07:32:25;12.70;99.90
39493;DHT22;25176;51.060;3.720;2023-01-01T07:34:51;12.60;99.90
39493;DHT22;25176;51.060;3.720;2023-01-01T07:37:16;12.60;99.90
39493;DHT22;25176;51.060;3.720;2023-01-01T07:39:42;12.60;99.90
39493;DHT22;25176;51.060;3.720;2023-01-01T07:42:07;12.60;99.90
39493;DHT22;25176;51.060;3.720;2023-01-01T07:44:33;12.70;99.90
39493;DHT22;25176;51.060;3.720;2023-01-01T07:47:02;12.70;99.90
39493;DHT22;25176;51.060;3.720;2023-01-01T07:49:27;12.80;99.90
39493;DHT22;25176;51.060;3.720;2023-01-01T07:51:53;12.80;99.90
39493;DHT22;25176;51.060;3.720;2023-01-01T07:54:18;12.80;99.90
39493;DHT22;25176;51.060;3.720;2023-01-01T07:56:44;12.80;99.90
39493;DHT22;25176;51.060;3.720;2023-01-01T07:59:09;12.80;99.90
39493;DHT22;25176;51.060;3.720;2023-01-01T08:01:35;12.90;99.90
39493;DHT22;25176;51.060;3.720;2023-01-01T08:04:01;12.80;99.90
39493;DHT22;25176;51.060;3.720;2023-01-01T08:06:27;12.80;99.90
39493;DHT22;25176;51.060;3.720;2023-01-01T08:08:52;12.80;99.90
39493;DHT22;25176;51.060;3.720;2023-01-01T08:11:18;12.90;99.90
39493;DHT22;25176;51.060;3.720;2023-01-01T08:13:43;13.00;99.90
39493;DHT22;25176;51.060;3.720;2023-01-01T08:16:09;13.00;99.90
39493;DHT22;25176;51.060;3.720;2023-01-01T08:18:34;13.00;99.90
39493;DHT22;25176;51.060;3.720;2023-01-01T08:21:00;12.80;99.90
39493;DHT22;25176;51.060;3.720;2023-01-01T08:23:26;12.90;99.90
39493;DHT22;25176;51.060;3.720;2023-01-01T08:25:53;12.80;99.90
39493;DHT22;25176;51.060;3.720;2023-01-01T08:28:18;12.80;99.90
39493;DHT22;25176;51.060;3.720;2023-01-01T08:30:44;12.70;99.90
39493;DHT22;25176;51.060;3.720;2023-01-01T08:33:09;12.70;99.90
39493;DHT22;25176;51.060;3.720;2023-01-01T08:35:35;12.70;99.90
39493;DHT22;25176;51.060;3.720;2023-01-01T08:38:01;12.70;99.90
39493;DHT22;25176;51.060;3.720;2023-01-01T08:40:26;12.70;99.90
39493;DHT22;25176;51.060;3.720;2023-01-01T08:42:53;12.80;99.90
39493;DHT22;25176;51.060;3.720;2023-01-01T08:45:18;12.80;99.90
39493;DHT22;25176;51.060;3.720;2023-01-01T08:47:44;12.90;99.90
39493;DHT22;25176;51.060;3.720;2023-01-01T08:50:09;12.90;99.90
39493;DHT22;25176;51.060;3.720;2023-01-01T08:52:35;13.00;99.90
39493;DHT22;25176;51.060;3.720;2023-01-01T08:55:00;13.10;99.90
39493;DHT22;25176;51.060;3.720;2023-01-01T08:57:28;12.90;99.90
39493;DHT22;25176;51.060;3.720;2023-01-01T08:59:53;12.80;99.90
39493;DHT22;25176;51.060;3.720;2023-01-01T09:02:19;12.80;99.90
39493;DHT22;25176;51.060;3.720;2023-01-01T09:04:44;12.80;99.90
39493;DHT22;25176;51.060;3.720;2023-01-01T09:07:10;12.80;99.90
39493;DHT22;25176;51.060;3.720;2023-01-01T09:09:35;12.80;99.90
39493;DHT22;25176;51.060;3.720;2023-01-01T09:12:01;12.90;99.90
39493;DHT22;25176;51.060;3.720;2023-01-01T09:14:30;12.80;99.90
39493;DHT22;25176;51.060;3.720;2023-01-01T09:16:56;12.70;99.90
39493;DHT22;25176;51.060;3.720;2023-01-01T09:19:22;12.90;99.90
39493;DHT22;25176;51.060;3.720;2023-01-01T09:21:48;12.90;99.90
39493;DHT22;25176;51.060;3.720;2023-01-01T09:24:13;12.80;99.90
39493;DHT22;25176;51.060;3.720;2023-01-01T09:26:39;12.80;99.90
39493;DHT22;25176;51.060;3.720;2023-01-01T09:29:04;12.90;99.90
39493;DHT22;25176;51.060;3.720;2023-01-01T09:31:30;12.90;99.90
39493;DHT22;25176;51.060;3.720;2023-01-01T09:33:55;12.80;99.90
39493;DHT22;25176;51.060;3.720;2023-01-01T09:38:49;12.90;99.90
39493;DHT22;25176;51.060;3.720;2023-01-01T09:46:08;12.80;99.90
39493;DHT22;25176;51.060;3.720;2023-01-01T09:48:37;12.90;99.90
39493;DHT22;25176;51.060;3.720;2023-01-01T09:51:04;12.90;99.90
39493;DHT22;25176;51.060;3.720;2023-01-01T09:53:30;13.00;99.90
39493;DHT22;25176;51.060;3.720;2023-01-01T09:55:57;13.10;99.90
39493;DHT22;25176;51.060;3.720;2023-01-01T09:58:24;13.20;99.90
39493;DHT22;25176;51.060;3.720;2023-01-01T10:00:54;13.20;99.90
39493;DHT22;25176;51.060;3.720;2023-01-01T10:08:30;13.00;99.90
39493;DHT22;25176;51.060;3.720;2023-01-01T10:11:08;13.00;99.90
39493;DHT22;25176;51.060;3.720;2023-01-01T10:13:40;13.00;99.90
39493;DHT22;25176;51.060;3.720;2023-01-01T10:16:14;13.00;99.90
39493;DHT22;25176;51.060;3.720;2023-01-01T10:18:43;13.00;99.90
39493;DHT22;25176;51.060;3.720;2023-01-01T10:23:54;13.20;99.90
39493;DHT22;25176;51.060;3.720;2023-01-01T10:26:21;13.30;99.90
39493;DHT22;25176;51.060;3.720;2023-01-01T10:28:53;13.30;99.90
39493;DHT22;25176;51.060;3.720;2023-01-01T10:31:28;13.30;99.90
39493;DHT22;25176;51.060;3.720;2023-01-01T10:33:55;13.50;99.90
39493;DHT22;25176;51.060;3.720;2023-01-01T10:36:20;13.40;99.90
39493;DHT22;25176;51.060;3.720;2023-01-01T10:38:49;13.40;99.90
39493;DHT22;25176;51.060;3.720;2023-01-01T10:41:14;13.50;99.90
39493;DHT22;25176;51.060;3.720;2023-01-01T10:43:41;13.50;99.90
39493;DHT22;25176;51.060;3.720;2023-01-01T10:46:08;13.50;99.90
39493;DHT22;25176;51.060;3.720;2023-01-01T10:48:35;13.50;99.90
39493;DHT22;25176;51.060;3.720;2023-01-01T10:51:04;13.50;99.90
39493;DHT22;25176;51.060;3.720;2023-01-01T10:53:31;13.50;99.90
39493;DHT22;25176;51.060;3.720;2023-01-01T10:56:14;13.50;99.90
39493;DHT22;25176;51.060;3.720;2023-01-01T11:01:19;13.60;99.90
39493;DHT22;25176;51.060;3.720;2023-01-01T11:04:02;13.60;99.90
39493;DHT22;25176;51.060;3.720;2023-01-01T11:06:34;13.60;99.90
39493;DHT22;25176;51.060;3.720;2023-01-01T11:09:05;13.60;99.90
39493;DHT22;25176;51.060;3.720;2023-01-01T11:11:42;13.50;99.90
39493;DHT22;25176;51.060;3.720;2023-01-01T11:14:27;13.60;99.90
39493;DHT22;25176;51.060;3.720;2023-01-01T11:16:53;13.70;99.90
39493;DHT22;25176;51.060;3.720;2023-01-01T11:19:26;13.80;99.90
39493;DHT22;25176;51.060;3.720;2023-01-01T11:21:52;13.80;99.90
39493;DHT22;25176;51.060;3.720;2023-01-01T11:24:22;13.80;99.90
39493;DHT22;25176;51.060;3.720;2023-01-01T11:26:48;13.70;99.90
39493;DHT22;25176;51.060;3.720;2023-01-01T11:31:46;14.00;99.90
39493;DHT22;25176;51.060;3.720;2023-01-01T11:36:47;14.10;99.90
39493;DHT22;25176;51.060;3.720;2023-01-01T11:41:41;14.00;99.90
39493;DHT22;25176;51.060;3.720;2023-01-01T11:44:09;14.10;99.90
39493;DHT22;25176;51.060;3.720;2023-01-01T11:46:36;14.00;99.90
39493;DHT22;25176;51.060;3.720;2023-01-01T11:49:02;13.90;99.90
39493;DHT22;25176;51.060;3.720;2023-01-01T11:51:28;14.00;99.90
39493;DHT22;25176;51.060;3.720;2023-01-01T11:54:24;14.10;99.90
39493;DHT22;25176;51.060;3.720;2023-01-01T11:56:52;14.20;99.90
39493;DHT22;25176;51.060;3.720;2023-01-01T11:59:18;14.40;99.90
39493;DHT22;25176;51.060;3.720;2023-01-01T12:01:47;14.40;99.90
39493;DHT22;25176;51.060;3.720;2023-01-01T12:04:24;14.30;99.90
39493;DHT22;25176;51.060;3.720;2023-01-01T12:06:52;14.30;99.90
39493;DHT22;25176;51.060;3.720;2023-01-01T12:11:50;14.30;99.90
39493;DHT22;25176;51.060;3.720;2023-01-01T12:19:17;14.40;99.90
39493;DHT22;25176;51.060;3.720;2023-01-01T12:21:43;14.40;99.90
39493;DHT22;25176;51.060;3.720;2023-01-01T12:24:10;14.30;99.90
39493;DHT22;25176;51.060;3.720;2023-01-01T12:31:51;14.20;99.90
39493;DHT22;25176;51.060;3.720;2023-01-01T12:34:29;14.20;99.90
39493;DHT22;25176;51.060;3.720;2023-01-01T12:39:47;14.10;99.90
39493;DHT22;25176;51.060;3.720;2023-01-01T12:42:31;14.20;99.90
39493;DHT22;25176;51.060;3.720;2023-01-01T12:52:37;14.00;99.90
39493;DHT22;25176;51.060;3.720;2023-01-01T12:55:22;14.00;99.90
39493;DHT22;25176;51.060;3.720;2023-01-01T13:00:33;14.10;99.90
39493;DHT22;25176;51.060;3.720;2023-01-01T13:03:15;14.20;99.90
39493;DHT22;25176;51.060;3.720;2023-01-01T13:05:43;14.40;99.90
39493;DHT22;25176;51.060;3.720;2023-01-01T13:08:09;14.50;99.90
39493;DHT22;25176;51.060;3.720;2023-01-01T13:10:39;14.40;99.90
39493;DHT22;25176;51.060;3.720;2023-01-01T13:13:05;14.40;99.90
39493;DHT22;25176;51.060;3.720;2023-01-01T13:18:03;14.20;99.90
39493;DHT22;25176;51.060;3.720;2023-01-01T13:20:29;14.20;99.90
39493;DHT22;25176;51.060;3.720;2023-01-01T13:22:55;14.30;99.90
39493;DHT22;25176;51.060;3.720;2023-01-01T13:25:21;14.40;99.90
39493;DHT22;25176;51.060;3.720;2023-01-01T13:35:42;14.50;99.90
39493;DHT22;25176;51.060;3.720;2023-01-01T13:40:51;14.30;99.90
39493;DHT22;25176;51.060;3.720;2023-01-01T13:43:18;14.30;99.90
39493;DHT22;25176;51.060;3.720;2023-01-01T13:45:44;14.20;99.90
39493;DHT22;25176;51.060;3.720;2023-01-01T13:56:04;14.20;99.90
39493;DHT22;25176;51.060;3.720;2023-01-01T14:03:44;14.40;99.90
39493;DHT22;25176;51.060;3.720;2023-01-01T14:06:11;14.40;99.90
39493;DHT22;25176;51.060;3.720;2023-01-01T14:08:37;14.30;99.90
39493;DHT22;25176;51.060;3.720;2023-01-01T14:11:16;14.30;99.90
39493;DHT22;25176;51.060;3.720;2023-01-01T14:13:42;14.20;99.90
39493;DHT22;25176;51.060;3.720;2023-01-01T14:16:08;14.20;99.90
39493;DHT22;25176;51.060;3.720;2023-01-01T14:18:57;14.30;99.90
39493;DHT22;25176;51.060;3.720;2023-01-01T14:21:24;14.40;99.90
39493;DHT22;25176;51.060;3.720;2023-01-01T14:23:54;14.50;99.90
39493;DHT22;25176;51.060;3.720;2023-01-01T14:26:21;14.40;99.90
39493;DHT22;25176;51.060;3.720;2023-01-01T14:28:47;14.40;99.90
39493;DHT22;25176;51.060;3.720;2023-01-01T14:31:17;14.40;99.90
39493;DHT22;25176;51.060;3.720;2023-01-01T14:33:43;14.20;99.90
39493;DHT22;25176;51.060;3.720;2023-01-01T14:36:16;14.10;99.90
39493;DHT22;25176;51.060;3.720;2023-01-01T14:38:45;14.00;99.90
39493;DHT22;25176;51.060;3.720;2023-01-01T14:41:15;14.00;99.90
39493;DHT22;25176;51.060;3.720;2023-01-01T14:43:42;14.00;99.90
39493;DHT22;25176;51.060;3.720;2023-01-01T14:46:12;13.90;99.90
39493;DHT22;25176;51.060;3.720;2023-01-01T14:48:41;13.90;99.90
39493;DHT22;25176;51.060;3.720;2023-01-01T14:51:07;14.00;99.90
39493;DHT22;25176;51.060;3.720;2023-01-01T14:53:35;14.00;99.90
39493;DHT22;25176;51.060;3.720;2023-01-01T14:56:01;14.10;99.90
39493;DHT22;25176;51.060;3.720;2023-01-01T14:58:31;14.00;99.90
39493;DHT22;25176;51.060;3.720;2023-01-01T15:01:16;14.00;99.90
39493;DHT22;25176;51.060;3.720;2023-01-01T15:03:56;13.90;99.90
39493;DHT22;25176;51.060;3.720;2023-01-01T15:06:21;13.80;99.90
39493;DHT22;25176;51.060;3.720;2023-01-01T15:08:48;13.80;99.90
39493;DHT22;25176;51.060;3.720;2023-01-01T15:11:13;13.80;99.90
39493;DHT22;25176;51.060;3.720;2023-01-01T15:13:38;13.80;99.90
39493;DHT22;25176;51.060;3.720;2023-01-01T15:16:14;13.80;99.90
39493;DHT22;25176;51.060;3.720;2023-01-01T15:18:44;13.80;99.90
39493;DHT22;25176;51.060;3.720;2023-01-01T15:21:14;13.70;99.90
39493;DHT22;25176;51.060;3.720;2023-01-01T15:23:51;13.90;99.90
39493;DHT22;25176;51.060;3.720;2023-01-01T15:26:32;13.90;99.90
39493;DHT22;25176;51.060;3.720;2023-01-01T15:28:58;13.80;99.90
39493;DHT22;25176;51.060;3.720;2023-01-01T15:31:37;13.80;99.90
39493;DHT22;25176;51.060;3.720;2023-01-01T15:34:13;13.80;99.90
39493;DHT22;25176;51.060;3.720;2023-01-01T15:36:39;13.80;99.90
39493;DHT22;25176;51.060;3.720;2023-01-01T15:39:08;13.80;99.90
39493;DHT22;25176;51.060;3.720;2023-01-01T15:41:49;13.70;99.90
39493;DHT22;25176;51.060;3.720;2023-01-01T15:44:16;13.70;99.90
39493;DHT22;25176;51.060;3.720;2023-01-01T15:46:46;13.60;99.90
39493;DHT22;25176;51.060;3.720;2023-01-01T15:51:46;13.60;99.90
39493;DHT22;25176;51.060;3.720;2023-01-01T15:54:12;13.60;99.90
39493;DHT22;25176;51.060;3.720;2023-01-01T15:56:39;13.60;99.90
39493;DHT22;25176;51.060;3.720;2023-01-01T15:59:26;13.60;99.90
39493;DHT22;25176;51.060;3.720;2023-01-01T16:01:51;13.60;99.90
39493;DHT22;25176;51.060;3.720;2023-01-01T16:04:18;13.50;99.90
39493;DHT22;25176;51.060;3.720;2023-01-01T16:06:45;13.50;99.90
39493;DHT22;25176;51.060;3.720;2023-01-01T16:09:12;13.60;99.90
39493;DHT22;25176;51.060;3.720;2023-01-01T16:11:38;13.50;99.90
39493;DHT22;25176;51.060;3.720;2023-01-01T16:14:03;13.40;99.90
39493;DHT22;25176;51.060;3.720;2023-01-01T16:16:29;13.30;99.90
39493;DHT22;25176;51.060;3.720;2023-01-01T16:18:55;13.30;99.90
39493;DHT22;25176;51.060;3.720;2023-01-01T16:21:25;13.40;99.90
39493;DHT22;25176;51.060;3.720;2023-01-01T16:23:51;13.40;99.90
39493;DHT22;25176;51.060;3.720;2023-01-01T16:26:16;13.40;99.90
39493;DHT22;25176;51.060;3.720;2023-01-01T16:28:42;13.40;99.90
39493;DHT22;25176;51.060;3.720;2023-01-01T16:31:11;13.40;99.90
39493;DHT22;25176;51.060;3.720;2023-01-01T16:33:37;13.40;99.90
39493;DHT22;25176;51.060;3.720;2023-01-01T16:36:03;13.40;99.90
39493;DHT22;25176;51.060;3.720;2023-01-01T16:38:28;13.40;99.90
39493;DHT22;25176;51.060;3.720;2023-01-01T16:40:54;13.30;99.90
39493;DHT22;25176;51.060;3.720;2023-01-01T16:43:19;13.30;99.90
39493;DHT22;25176;51.060;3.720;2023-01-01T16:45:45;13.30;99.90
39493;DHT22;25176;51.060;3.720;2023-01-01T16:48:10;13.20;99.90
39493;DHT22;25176;51.060;3.720;2023-01-01T16:50:36;13.30;99.90
39493;DHT22;25176;51.060;3.720;2023-01-01T16:53:01;13.30;99.90
39493;DHT22;25176;51.060;3.720;2023-01-01T16:55:27;13.20;99.90
39493;DHT22;25176;51.060;3.720;2023-01-01T16:57:52;13.20;99.90
39493;DHT22;25176;51.060;3.720;2023-01-01T17:00:18;13.20;99.90
39493;DHT22;25176;51.060;3.720;2023-01-01T17:02:44;13.10;99.90
39493;DHT22;25176;51.060;3.720;2023-01-01T17:05:12;13.10;99.90
39493;DHT22;25176;51.060;3.720;2023-01-01T17:07:38;13.10;99.90
39493;DHT22;25176;51.060;3.720;2023-01-01T17:10:03;13.00;99.90
39493;DHT22;25176;51.060;3.720;2023-01-01T17:12:29;13.10;99.90
39493;DHT22;25176;51.060;3.720;2023-01-01T17:14:55;13.10;99.90
39493;DHT22;25176;51.060;3.720;2023-01-01T17:17:20;13.00;99.90
39493;DHT22;25176;51.060;3.720;2023-01-01T17:19:46;13.00;99.90
39493;DHT22;25176;51.060;3.720;2023-01-01T17:22:11;13.10;99.90
39493;DHT22;25176;51.060;3.720;2023-01-01T17:24:37;13.10;99.90
39493;DHT22;25176;51.060;3.720;2023-01-01T17:27:02;12.90;99.90
39493;DHT22;25176;51.060;3.720;2023-01-01T17:29:28;12.90;99.90